Time;durP1;ratioP1;P1;durP2;ratioP2;P2;SDS_P1;SDS_P2;PMS_P1;PMS_P2;Temp;Humidity;BMP_temperature;BMP_pressure;BME280_temperature;BME280_humidity;BME280_pressure;Samples;Min_cycle;Max_cycle;Signal;HPM_P1;HPM_P2
2022/03/03 00:00:16;;;;;;;57.42;28.42;;;-2.40;99.90;;;;;;6125990;23;20029;-86
2022/03/03 00:03:04;;;;;;;57.70;28.27;;;-2.50;99.90;;;;;;6126442;23;20026;-85
2022/03/03 00:05:51;;;;;;;54.15;26.65;;;-2.50;99.90;;;;;;6109684;23;20025;-85
2022/03/03 00:08:41;;;;;;;56.55;28.52;;;-2.50;99.90;;;;;;6127690;23;20022;-85
2022/03/03 00:11:30;;;;;;;54.25;28.08;;;-2.60;99.90;;;;;;6128187;23;20021;-85
2022/03/03 00:14:17;;;;;;;61.72;29.15;;;-2.60;99.90;;;;;;6131524;23;20041;-85
2022/03/03 00:17:07;;;;;;;50.28;26.42;;;-2.70;99.90;;;;;;6130046;23;20030;-85
2022/03/03 00:19:54;;;;;;;49.30;25.83;;;-2.70;99.90;;;;;;6137498;23;20026;-85
2022/03/03 00:22:43;;;;;;;51.33;26.67;;;-2.70;99.90;;;;;;6130327;23;20342;-84
2022/03/03 00:25:33;;;;;;;49.38;27.00;;;-2.80;99.90;;;;;;6125788;23;20030;-85
2022/03/03 00:28:20;;;;;;;51.15;27.27;;;-2.90;99.90;;;;;;6125555;23;20025;-84
2022/03/03 00:31:07;;;;;;;57.30;30.65;;;-2.90;99.90;;;;;;6125673;23;20025;-83
2022/03/03 00:33:54;;;;;;;85.38;40.00;;;-2.80;99.90;;;;;;6125411;23;20385;-85
2022/03/03 00:36:43;;;;;;;60.08;31.95;;;-2.80;99.90;;;;;;6125496;23;20125;-85
2022/03/03 00:39:30;;;;;;;65.90;32.42;;;-2.80;99.90;;;;;;6124746;23;20402;-86
2022/03/03 00:42:19;;;;;;;56.17;28.73;;;-2.90;99.90;;;;;;6127826;23;20030;-84
2022/03/03 00:45:08;;;;;;;54.75;29.92;;;-2.90;99.90;;;;;;6128910;23;20057;-85
2022/03/03 00:47:58;;;;;;;56.40;28.80;;;-3.00;99.90;;;;;;6126509;23;20029;-86
2022/03/03 00:50:48;;;;;;;61.35;30.65;;;-3.00;99.90;;;;;;6127523;23;20026;-85
2022/03/03 00:53:37;;;;;;;53.63;27.58;;;-3.00;99.90;;;;;;6106334;23;20026;-85
2022/03/03 00:56:25;;;;;;;56.72;28.75;;;-3.00;99.90;;;;;;6124006;23;20057;-85
2022/03/03 00:59:12;;;;;;;53.08;28.33;;;-3.00;99.90;;;;;;6124251;23;20097;-83
2022/03/03 01:01:59;;;;;;;52.88;28.00;;;-3.00;99.90;;;;;;6124508;23;20286;-85
2022/03/03 01:04:49;;;;;;;55.92;27.23;;;-3.00;99.90;;;;;;6127436;23;20026;-85
2022/03/03 01:07:37;;;;;;;53.55;28.30;;;-3.00;99.90;;;;;;6127301;23;20069;-86
2022/03/03 01:10:24;;;;;;;60.47;28.33;;;-3.00;99.90;;;;;;6126797;23;20084;-85
2022/03/03 01:13:11;;;;;;;61.42;28.98;;;-3.00;99.90;;;;;;6128624;23;20022;-85
2022/03/03 01:16:02;;;;;;;56.67;28.45;;;-3.10;99.90;;;;;;6131015;23;20310;-86
2022/03/03 01:18:49;;;;;;;52.45;27.42;;;-3.20;99.90;;;;;;6129287;23;20030;-85
2022/03/03 01:21:36;;;;;;;51.55;27.02;;;-3.10;99.90;;;;;;6105875;23;20032;-85
2022/03/03 01:24:23;;;;;;;48.58;27.45;;;-3.10;99.90;;;;;;6127609;23;20030;-85
2022/03/03 01:27:12;;;;;;;58.55;29.65;;;-3.10;99.90;;;;;;6127356;23;20026;-86
2022/03/03 01:30:01;;;;;;;62.53;29.05;;;-3.10;99.90;;;;;;6127853;23;20045;-83
2022/03/03 01:32:56;;;;;;;58.03;30.30;;;-3.10;99.90;;;;;;6125280;23;20030;-85
2022/03/03 01:35:44;;;;;;;55.90;29.42;;;-3.10;99.90;;;;;;6124418;23;20313;-85
2022/03/03 01:38:31;;;;;;;58.15;29.98;;;-3.10;99.90;;;;;;6125863;23;20030;-85
2022/03/03 01:41:23;;;;;;;58.00;29.77;;;-3.10;99.90;;;;;;6147872;23;20029;-84
2022/03/03 01:44:13;;;;;;;51.50;29.05;;;-3.20;99.90;;;;;;6129220;23;20402;-84
2022/03/03 01:47:21;;;;;;;58.03;30.58;;;-3.20;99.90;;;;;;6127106;23;20026;-85
2022/03/03 01:50:14;;;;;;;62.28;31.13;;;-3.10;99.90;;;;;;6107623;23;20030;-84
2022/03/03 01:53:01;;;;;;;55.00;29.98;;;-3.00;99.90;;;;;;6128264;23;20030;-85
2022/03/03 01:55:51;;;;;;;55.90;31.00;;;-3.00;99.90;;;;;;6132414;23;20061;-85
2022/03/03 01:58:38;;;;;;;63.22;30.67;;;-3.00;99.90;;;;;;6126283;23;20030;-83
2022/03/03 02:01:26;;;;;;;68.38;30.73;;;-3.10;99.90;;;;;;6107137;23;20058;-85
2022/03/03 02:04:18;;;;;;;60.45;31.52;;;-2.90;99.90;;;;;;6110491;23;20029;-83
2022/03/03 02:07:07;;;;;;;60.83;29.43;;;-2.80;99.90;;;;;;6152890;23;20029;-84
2022/03/03 02:09:57;;;;;;;59.00;30.38;;;-2.80;99.90;;;;;;6133236;23;20026;-84
2022/03/03 02:12:44;;;;;;;55.00;29.95;;;-2.80;99.90;;;;;;6135556;23;20026;-84
2022/03/03 02:15:31;;;;;;;56.72;31.30;;;-2.70;99.90;;;;;;6141144;23;20030;-83
2022/03/03 02:18:19;;;;;;;66.53;30.35;;;-2.50;99.90;;;;;;6139478;23;20105;-83
2022/03/03 02:21:15;;;;;;;56.55;28.25;;;-2.50;99.90;;;;;;6141983;23;20026;-84
2022/03/03 02:29:38;;;;;;;64.95;30.88;;;-2.70;99.90;;;;;;6189930;22;20028;-85
2022/03/03 02:32:25;;;;;;;62.45;29.05;;;-2.70;99.90;;;;;;6193804;23;20029;-85
2022/03/03 02:35:12;;;;;;;55.22;28.83;;;-2.80;99.90;;;;;;6194469;23;20079;-85
2022/03/03 02:38:19;;;;;;;54.00;26.45;;;-2.80;99.90;;;;;;6195362;23;20070;-85
2022/03/03 02:41:06;;;;;;;53.15;27.63;;;-2.90;99.90;;;;;;6191508;23;20091;-84
2022/03/03 02:43:54;;;;;;;53.72;28.15;;;-2.90;99.90;;;;;;6182206;23;20066;-84
2022/03/03 02:46:41;;;;;;;54.83;28.83;;;-3.00;99.90;;;;;;6184756;23;20032;-86
2022/03/03 02:49:29;;;;;;;59.00;29.13;;;-3.00;99.90;;;;;;6182576;23;20061;-85
2022/03/03 02:52:18;;;;;;;54.67;29.10;;;-3.10;99.90;;;;;;6183382;23;20025;-85
2022/03/03 02:55:15;;;;;;;54.67;27.73;;;-3.10;99.90;;;;;;6182260;23;20021;-86
2022/03/03 02:58:05;;;;;;;61.17;28.80;;;-3.20;99.90;;;;;;6183123;23;20040;-85
2022/03/03 03:00:52;;;;;;;54.33;27.90;;;-3.30;99.90;;;;;;6185040;23;20021;-85
2022/03/03 03:03:43;;;;;;;60.67;28.75;;;-3.20;99.90;;;;;;6162653;23;20442;-84
2022/03/03 03:06:34;;;;;;;62.92;29.15;;;-3.20;99.90;;;;;;6183229;23;20037;-85
2022/03/03 03:09:27;;;;;;;60.55;28.23;;;-3.20;99.90;;;;;;6162748;23;20036;-85
2022/03/03 03:12:17;;;;;;;59.83;29.10;;;-3.30;99.90;;;;;;6181508;23;20135;-84
2022/03/03 03:15:07;;;;;;;53.63;26.52;;;-3.30;99.90;;;;;;6159484;23;20095;-83
2022/03/03 03:17:54;;;;;;;53.78;27.70;;;-3.40;99.90;;;;;;6181685;23;20444;-85
2022/03/03 03:20:44;;;;;;;52.30;28.13;;;-3.50;99.90;;;;;;6181440;23;20028;-85
2022/03/03 03:23:33;;;;;;;53.47;27.67;;;-3.60;99.90;;;;;;6161820;23;20448;-86
2022/03/03 03:26:23;;;;;;;57.67;28.20;;;-3.70;99.90;;;;;;6181799;23;20128;-85
2022/03/03 03:29:10;;;;;;;56.78;28.67;;;-3.70;99.90;;;;;;6183014;23;20313;-84
2022/03/03 03:32:00;;;;;;;59.38;28.92;;;-3.70;99.90;;;;;;6182160;23;20432;-84
2022/03/03 03:34:48;;;;;;;58.60;29.60;;;-3.80;99.90;;;;;;6183149;23;20056;-85
2022/03/03 03:37:38;;;;;;;58.67;30.02;;;-3.80;99.90;;;;;;6159578;23;20033;-84
2022/03/03 03:40:30;;;;;;;53.53;28.85;;;-3.80;99.90;;;;;;6182229;23;20029;-84
2022/03/03 03:43:17;;;;;;;55.25;28.85;;;-3.80;99.90;;;;;;6181580;23;20397;-85
2022/03/03 03:46:04;;;;;;;58.72;30.38;;;-3.70;99.90;;;;;;6183362;23;20089;-85
2022/03/03 03:48:52;;;;;;;61.47;30.90;;;-3.70;99.90;;;;;;6181988;23;20068;-84
2022/03/03 03:51:41;;;;;;;60.92;30.40;;;-3.70;99.90;;;;;;6182736;23;20280;-85
2022/03/03 03:54:28;;;;;;;65.88;30.60;;;-3.70;99.90;;;;;;6181097;23;20408;-84
2022/03/03 03:57:15;;;;;;;56.55;30.20;;;-3.70;99.90;;;;;;6181771;23;20129;-85
2022/03/03 04:00:06;;;;;;;62.38;31.05;;;-3.70;99.90;;;;;;6160276;23;20048;-85
2022/03/03 04:02:56;;;;;;;59.20;30.40;;;-3.70;99.90;;;;;;6183253;23;20041;-85
2022/03/03 04:05:44;;;;;;;60.20;31.75;;;-3.80;99.90;;;;;;6182958;23;20037;-84
2022/03/03 04:08:37;;;;;;;56.45;29.35;;;-3.80;99.90;;;;;;6185002;23;20025;-84
2022/03/03 04:11:32;;;;;;;68.22;31.25;;;-3.80;99.90;;;;;;6184797;23;20029;-85
2022/03/03 04:14:19;;;;;;;61.72;31.92;;;-3.80;99.90;;;;;;6184998;23;20039;-85
2022/03/03 04:17:08;;;;;;;67.13;32.83;;;-3.80;99.90;;;;;;6184305;23;20039;-85
2022/03/03 04:19:56;;;;;;;63.58;32.35;;;-3.80;99.90;;;;;;6183417;23;20025;-85
2022/03/03 04:22:43;;;;;;;64.32;32.85;;;-3.70;99.90;;;;;;6183627;23;20032;-84
2022/03/03 04:25:35;;;;;;;67.13;33.85;;;-3.80;99.90;;;;;;6183720;23;20103;-85
2022/03/03 04:28:22;;;;;;;68.53;33.75;;;-3.80;99.90;;;;;;6163476;23;20087;-85
2022/03/03 04:31:10;;;;;;;65.47;31.92;;;-3.80;99.90;;;;;;6184558;23;20021;-85
2022/03/03 04:34:02;;;;;;;61.80;30.95;;;-3.80;99.90;;;;;;6183889;23;20124;-86
2022/03/03 04:36:49;;;;;;;60.63;30.17;;;-3.80;99.90;;;;;;6184828;23;20029;-85
2022/03/03 04:39:37;;;;;;;65.95;33.17;;;-3.80;99.90;;;;;;6184796;23;20044;-85
2022/03/03 04:42:24;;;;;;;58.63;30.88;;;-3.80;99.90;;;;;;6189515;23;20057;-83
2022/03/03 04:48:42;;;;;;;61.90;31.00;;;-3.90;99.90;;;;;;6187335;23;20021;-85
2022/03/03 04:51:31;;;;;;;57.00;30.10;;;-3.90;99.90;;;;;;6192263;23;20087;-85
2022/03/03 04:54:24;;;;;;;59.55;29.42;;;-3.90;99.90;;;;;;6186174;23;20069;-84
2022/03/03 04:57:14;;;;;;;62.42;30.95;;;-4.00;99.90;;;;;;6160256;23;20024;-84
2022/03/03 05:00:21;;;;;;;60.15;31.20;;;-4.00;99.90;;;;;;6183754;23;20028;-84
2022/03/03 05:03:09;;;;;;;64.50;31.35;;;-3.90;99.90;;;;;;6184699;23;20037;-83
2022/03/03 05:05:58;;;;;;;70.20;33.47;;;-3.80;99.90;;;;;;6184107;23;20102;-85
2022/03/03 05:08:46;;;;;;;65.70;32.85;;;-3.70;99.90;;;;;;6185486;23;20389;-84
2022/03/03 05:11:33;;;;;;;70.90;33.17;;;-3.70;99.90;;;;;;6185382;23;20052;-86
2022/03/03 05:14:20;;;;;;;66.78;33.33;;;-3.70;99.90;;;;;;6162636;23;20036;-82
2022/03/03 05:17:15;;;;;;;67.15;32.90;;;-3.60;99.90;;;;;;6185187;23;20105;-82
2022/03/03 05:20:05;;;;;;;64.18;32.80;;;-3.70;99.90;;;;;;6185078;23;20032;-84
2022/03/03 05:22:55;;;;;;;65.03;32.65;;;-3.70;99.90;;;;;;6184036;23;20088;-83
2022/03/03 05:25:42;;;;;;;65.53;32.95;;;-3.70;99.90;;;;;;6184041;23;20357;-82
2022/03/03 05:28:33;;;;;;;62.28;31.85;;;-3.70;99.90;;;;;;6184790;23;20028;-83
2022/03/03 05:31:29;;;;;;;67.82;32.33;;;-3.70;99.90;;;;;;6163525;23;20095;-82
2022/03/03 05:34:19;;;;;;;70.00;33.05;;;-3.70;99.90;;;;;;6183584;23;20039;-88
2022/03/03 05:37:06;;;;;;;72.25;34.35;;;-3.60;99.90;;;;;;6184274;23;20093;-87
2022/03/03 05:39:56;;;;;;;67.55;34.17;;;-3.60;99.90;;;;;;6185035;23;20312;-85
2022/03/03 05:42:44;;;;;;;72.20;34.55;;;-3.50;99.90;;;;;;6183685;23;20041;-84
2022/03/03 05:45:34;;;;;;;68.45;33.72;;;-3.30;99.90;;;;;;6183096;23;20129;-83
2022/03/03 05:48:23;;;;;;;68.78;33.53;;;-3.00;99.90;;;;;;6162524;23;20072;-84
2022/03/03 05:51:15;;;;;;;70.35;34.15;;;-2.80;99.90;;;;;;6183999;23;20087;-84
2022/03/03 05:54:06;;;;;;;63.80;31.00;;;-2.60;99.90;;;;;;6182487;23;20124;-83
2022/03/03 05:56:54;;;;;;;61.10;30.05;;;-2.70;99.90;;;;;;6183967;23;20032;-84
2022/03/03 05:59:45;;;;;;;58.72;30.02;;;-2.70;99.90;;;;;;6183498;23;20091;-82
2022/03/03 06:02:35;;;;;;;63.60;29.75;;;-2.80;99.90;;;;;;6184486;23;20091;-84
2022/03/03 06:05:28;;;;;;;61.35;29.40;;;-2.80;99.90;;;;;;6186599;23;20028;-84
2022/03/03 06:08:20;;;;;;;63.80;30.20;;;-2.80;99.90;;;;;;6163437;23;20444;-85
2022/03/03 06:11:16;;;;;;;61.90;30.23;;;-2.80;99.90;;;;;;6185839;23;20032;-84
2022/03/03 06:14:08;;;;;;;63.92;30.55;;;-2.90;99.90;;;;;;6184525;23;20021;-84
2022/03/03 06:16:57;;;;;;;56.60;29.15;;;-2.90;99.90;;;;;;6185830;23;20033;-82
2022/03/03 06:19:51;;;;;;;68.95;30.40;;;-2.90;99.90;;;;;;6185109;23;20064;-85
2022/03/03 06:22:41;;;;;;;62.90;30.08;;;-3.00;99.90;;;;;;6185971;23;20055;-85
2022/03/03 06:25:31;;;;;;;61.65;30.40;;;-2.90;99.90;;;;;;6165998;23;20083;-85
2022/03/03 06:28:21;;;;;;;53.90;29.38;;;-2.90;99.90;;;;;;6184308;23;20021;-84
2022/03/03 06:31:10;;;;;;;60.55;29.67;;;-2.90;99.90;;;;;;6163693;23;20076;-84
2022/03/03 06:34:00;;;;;;;58.70;29.10;;;-3.00;99.90;;;;;;6186009;23;20128;-84
2022/03/03 06:36:50;;;;;;;60.58;29.75;;;-3.00;99.90;;;;;;6186807;23;20099;-84
2022/03/03 06:39:37;;;;;;;65.75;31.27;;;-3.10;99.90;;;;;;6183865;23;20028;-85
2022/03/03 06:42:27;;;;;;;68.30;32.83;;;-3.10;99.90;;;;;;6183999;23;20025;-84
2022/03/03 06:45:17;;;;;;;68.88;33.45;;;-3.00;99.90;;;;;;6181076;23;20029;-84
2022/03/03 06:48:05;;;;;;;68.75;31.80;;;-3.00;99.90;;;;;;6163663;23;20080;-82
2022/03/03 06:50:57;;;;;;;64.20;31.15;;;-2.90;99.90;;;;;;6187581;23;20021;-83
2022/03/03 06:53:49;;;;;;;62.30;33.35;;;-2.70;99.90;;;;;;6184207;23;20024;-85
2022/03/03 06:56:56;;;;;;;54.83;29.50;;;-2.30;99.90;;;;;;6187234;23;20028;-85
2022/03/03 06:59:45;;;;;;;51.67;28.38;;;-1.60;99.90;;;;;;6186554;23;20021;-84
2022/03/03 07:02:33;;;;;;;49.92;27.48;;;-0.90;99.90;;;;;;6185697;23;20095;-84
2022/03/03 07:05:22;;;;;;;56.00;27.15;;;-0.40;99.90;;;;;;6166668;23;20025;-83
2022/03/03 07:08:10;;;;;;;51.28;25.88;;;0.00;99.90;;;;;;6187987;22;20033;-84
2022/03/03 07:10:57;;;;;;;49.30;26.15;;;0.20;99.90;;;;;;6187096;23;20397;-82
2022/03/03 07:13:48;;;;;;;46.92;25.40;;;0.30;99.90;;;;;;6188992;23;20036;-84
2022/03/03 07:16:43;;;;;;;49.13;26.50;;;0.50;99.90;;;;;;6197433;23;20029;-84
2022/03/03 07:19:53;;;;;;;48.40;26.20;;;0.50;99.90;;;;;;6196574;23;20052;-83
2022/03/03 07:22:56;;;;;;;46.47;24.92;;;0.40;99.90;;;;;;6197885;23;20021;-82
2022/03/03 07:25:49;;;;;;;49.90;26.40;;;0.70;99.90;;;;;;6201212;23;20065;-83
2022/03/03 07:28:40;;;;;;;47.25;25.70;;;1.00;99.90;;;;;;6205770;23;20021;-82
2022/03/03 07:31:31;;;;;;;46.67;25.73;;;1.00;99.90;;;;;;6204582;23;20097;-82
2022/03/03 07:34:34;;;;;;;42.15;25.65;;;0.90;99.90;;;;;;6188805;23;20032;-84
2022/03/03 07:37:30;;;;;;;48.80;26.40;;;1.30;99.90;;;;;;6187599;23;20026;-83
2022/03/03 07:40:18;;;;;;;48.38;26.10;;;1.70;99.90;;;;;;6193218;23;20237;-83
2022/03/03 07:43:15;;;;;;;42.75;24.73;;;2.10;99.90;;;;;;6192171;23;20017;-83
2022/03/03 07:46:03;;;;;;;43.83;25.15;;;2.60;99.90;;;;;;6191192;23;20021;-82
2022/03/03 07:48:53;;;;;;;43.33;24.00;;;3.10;99.90;;;;;;6193956;23;20035;-83
2022/03/03 07:51:41;;;;;;;44.63;23.30;;;3.50;99.90;;;;;;6193704;23;20021;-80
2022/03/03 07:54:28;;;;;;;43.50;21.85;;;3.70;99.90;;;;;;6194697;23;20025;-82
2022/03/03 07:57:21;;;;;;;40.47;22.63;;;4.20;99.90;;;;;;6195738;23;20055;-84
2022/03/03 08:00:13;;;;;;;;;;;4.10;98.20;;;;;;6194300;23;20125;-83
2022/03/03 08:03:08;;;;;;;24.33;14.38;;;4.00;98.40;;;;;;6192731;23;20316;-84
2022/03/03 08:05:57;;;;;;;37.15;22.23;;;4.00;98.60;;;;;;6173849;23;20052;-85
2022/03/03 08:08:46;;;;;;;37.78;22.30;;;4.50;97.50;;;;;;6191946;23;20025;-85
2022/03/03 08:11:39;;;;;;;35.17;21.33;;;5.10;95.70;;;;;;6187547;23;20028;-85
2022/03/03 08:14:29;;;;;;;33.92;21.00;;;5.90;92.50;;;;;;6186214;23;20097;-85
2022/03/03 08:17:18;;;;;;;33.42;21.67;;;6.70;86.60;;;;;;6184783;23;20047;-85
2022/03/03 08:20:08;;;;;;;35.92;21.10;;;7.50;79.50;;;;;;6185078;23;20028;-84
2022/03/03 08:23:01;;;;;;;36.30;20.77;;;7.90;74.20;;;;;;6186451;23;20108;-84
2022/03/03 08:25:54;;;;;;;30.42;19.40;;;8.10;72.00;;;;;;6185904;23;20024;-84
2022/03/03 08:28:41;;;;;;;34.17;21.48;;;8.40;69.80;;;;;;6189721;23;20257;-84
2022/03/03 08:31:36;;;;;;;36.78;20.83;;;8.90;66.40;;;;;;6165275;23;20021;-85
2022/03/03 08:34:42;;;;;;;33.80;20.58;;;9.30;63.50;;;;;;6187149;23;20386;-85
2022/03/03 08:37:41;;;;;;;37.03;20.85;;;9.10;62.60;;;;;;6186150;23;20425;-84
2022/03/03 08:40:32;;;;;;;34.08;20.65;;;8.80;63.80;;;;;;6164522;23;20036;-85
2022/03/03 08:43:22;;;;;;;34.20;20.92;;;8.80;64.80;;;;;;6189263;23;20029;-83
2022/03/03 08:46:11;;;;;;;32.15;20.70;;;8.80;64.30;;;;;;6185753;23;20024;-85
2022/03/03 08:49:02;;;;;;;35.20;21.50;;;8.60;63.90;;;;;;6184953;23;20036;-84
2022/03/03 08:51:49;;;;;;;31.85;21.48;;;8.10;66.60;;;;;;6185005;23;20444;-85
2022/03/03 08:54:37;;;;;;;38.03;22.02;;;8.00;67.80;;;;;;6163842;23;20021;-85
2022/03/03 08:57:24;;;;;;;35.78;21.48;;;8.00;68.80;;;;;;6184687;23;20132;-85
2022/03/03 09:00:13;;;;;;;31.77;21.42;;;8.60;66.70;;;;;;6186077;23;20029;-86
2022/03/03 09:03:06;;;;;;;32.72;20.65;;;9.40;62.80;;;;;;6187510;23;20036;-86
2022/03/03 09:05:56;;;;;;;29.92;20.08;;;10.00;59.70;;;;;;6186177;23;20111;-86
2022/03/03 09:08:45;;;;;;;30.48;19.83;;;10.20;59.40;;;;;;6187765;23;20106;-85
2022/03/03 09:11:35;;;;;;;30.50;20.45;;;10.20;59.80;;;;;;6185591;23;20108;-85
2022/03/03 09:14:24;;;;;;;30.77;20.80;;;10.20;58.50;;;;;;6165586;23;20045;-85
2022/03/03 09:17:12;;;;;;;30.35;19.83;;;10.00;58.70;;;;;;6186127;23;20029;-86
2022/03/03 09:20:00;;;;;;;33.78;19.52;;;10.50;56.90;;;;;;6186017;23;20047;-84
2022/03/03 09:22:53;;;;;;;29.88;19.35;;;10.90;56.30;;;;;;6188236;23;20040;-84
2022/03/03 09:25:44;;;;;;;28.23;20.00;;;11.60;54.90;;;;;;6165594;23;20103;-83
2022/03/03 09:28:32;;;;;;;27.10;19.05;;;12.10;53.00;;;;;;6184776;23;20021;-85
2022/03/03 09:31:22;;;;;;;31.02;18.67;;;12.40;50.40;;;;;;6185152;23;20839;-83
2022/03/03 09:34:10;;;;;;;30.73;19.15;;;13.30;50.10;;;;;;6163215;23;20029;-86
2022/03/03 09:36:59;;;;;;;29.27;18.10;;;14.00;48.10;;;;;;6185955;23;20039;-85
2022/03/03 09:39:52;;;;;;;30.10;19.10;;;15.10;45.40;;;;;;6185517;23;20024;-84
2022/03/03 09:42:57;;;;;;;29.25;18.63;;;15.30;43.30;;;;;;6165073;23;20091;-82
2022/03/03 09:45:46;;;;;;;29.77;19.67;;;14.80;45.00;;;;;;6184817;23;20215;-84
2022/03/03 09:48:37;;;;;;;30.35;20.50;;;15.00;44.00;;;;;;6165348;23;20393;-84
2022/03/03 09:51:25;;;;;;;26.98;19.08;;;14.80;45.60;;;;;;6166467;23;20088;-85
2022/03/03 09:54:13;;;;;;;26.90;19.33;;;15.90;43.60;;;;;;6165769;23;20040;-84
2022/03/03 09:57:00;;;;;;;28.75;19.98;;;16.90;41.80;;;;;;6186115;23;20029;-86
2022/03/03 09:59:48;;;;;;;29.05;19.20;;;17.10;40.70;;;;;;6186503;23;20020;-87
2022/03/03 10:03:16;;;;;;;27.95;18.98;;;16.70;40.70;;;;;;6185842;23;20032;-85
2022/03/03 10:06:06;;;;;;;27.88;19.15;;;16.90;41.30;;;;;;6146774;23;20048;-84
2022/03/03 10:08:53;;;;;;;28.63;18.02;;;16.80;41.60;;;;;;6185192;23;20024;-87
2022/03/03 10:12:02;;;;;;;28.38;19.08;;;17.00;41.20;;;;;;6143246;23;20029;-84
2022/03/03 10:14:51;;;;;;;24.60;17.63;;;17.40;40.10;;;;;;6186443;23;20040;-85
2022/03/03 10:17:44;;;;;;;25.10;18.90;;;17.70;39.30;;;;;;6185041;23;20021;-84
2022/03/03 10:20:56;;;;;;;25.35;18.27;;;17.60;38.20;;;;;;6143314;23;20048;-85
2022/03/03 10:23:45;;;;;;;26.10;18.63;;;17.70;38.20;;;;;;6185138;23;20401;-85
2022/03/03 10:26:38;;;;;;;27.45;18.60;;;17.00;39.70;;;;;;6186104;23;20044;-85
2022/03/03 10:29:26;;;;;;;29.30;18.40;;;17.10;40.20;;;;;;6186763;23;20036;-84
2022/03/03 10:32:25;;;;;;;24.38;18.42;;;17.30;38.70;;;;;;6185121;23;20036;-84
2022/03/03 10:35:18;;;;;;;26.10;18.83;;;17.70;37.90;;;;;;6165256;23;20041;-85
2022/03/03 10:38:06;;;;;;;30.50;19.58;;;17.90;37.90;;;;;;6191033;23;20044;-84
2022/03/03 10:40:56;;;;;;;27.65;18.92;;;18.00;38.00;;;;;;6186432;23;20029;-85
2022/03/03 10:43:49;;;;;;;30.20;19.38;;;18.20;37.60;;;;;;6187384;23;20037;-85
2022/03/03 10:46:40;;;;;;;24.90;18.48;;;18.00;37.40;;;;;;6186722;23;20341;-84
2022/03/03 10:49:28;;;;;;;27.58;18.92;;;18.10;37.80;;;;;;6188565;23;20052;-84
2022/03/03 10:52:29;;;;;;;25.58;19.17;;;18.00;38.60;;;;;;6191235;23;20035;-86
2022/03/03 10:55:20;;;;;;;27.67;20.05;;;17.90;37.90;;;;;;6191491;23;20029;-86
2022/03/03 10:58:13;;;;;;;30.90;20.05;;;18.10;37.50;;;;;;6192231;23;20080;-86
2022/03/03 11:01:02;;;;;;;33.05;20.63;;;17.80;39.00;;;;;;6170342;23;20051;-85
2022/03/03 11:03:51;;;;;;;27.40;20.20;;;17.90;38.40;;;;;;6194965;23;20121;-86
2022/03/03 11:06:55;;;;;;;34.25;21.10;;;18.20;37.60;;;;;;6197125;23;20153;-83
2022/03/03 11:09:43;;;;;;;30.27;19.92;;;18.20;37.90;;;;;;6190891;23;20036;-87
2022/03/03 11:12:31;;;;;;;31.00;21.15;;;17.60;38.90;;;;;;6190674;23;20029;-84
2022/03/03 11:15:21;;;;;;;33.25;21.02;;;18.20;37.30;;;;;;6192986;23;20400;-86
2022/03/03 11:18:10;;;;;;;29.10;20.27;;;17.90;39.60;;;;;;6186945;23;20021;-85
2022/03/03 11:21:04;;;;;;;31.88;21.73;;;18.10;39.10;;;;;;6187179;23;20392;-85
2022/03/03 11:23:59;;;;;;;32.08;21.33;;;19.00;37.50;;;;;;6186047;23;20039;-84
2022/03/03 11:26:50;;;;;;;30.15;21.58;;;19.20;36.40;;;;;;6186072;23;20362;-86
2022/03/03 11:29:40;;;;;;;33.47;22.77;;;19.30;35.70;;;;;;6167199;23;20417;-88
2022/03/03 11:32:32;;;;;;;29.50;21.17;;;19.10;36.70;;;;;;6187296;23;20041;-84
2022/03/03 11:35:20;;;;;;;29.85;20.58;;;19.70;36.30;;;;;;6164219;23;20040;-85
2022/03/03 11:38:08;;;;;;;35.67;22.17;;;20.40;35.70;;;;;;6187039;23;20028;-85
2022/03/03 11:41:01;;;;;;;29.00;20.48;;;20.40;34.70;;;;;;6186171;23;20045;-84
2022/03/03 11:44:08;;;;;;;29.27;21.50;;;20.70;33.20;;;;;;6166771;23;20040;-86
2022/03/03 11:46:57;;;;;;;29.33;21.05;;;20.70;33.00;;;;;;6189246;23;20133;-85
2022/03/03 11:50:07;;;;;;;32.17;21.08;;;21.10;31.80;;;;;;6187009;23;20053;-86
2022/03/03 11:52:57;;;;;;;33.85;21.50;;;21.60;33.90;;;;;;6187290;23;20036;-86
2022/03/03 11:55:50;;;;;;;27.92;21.58;;;21.10;32.40;;;;;;6167357;23;20471;-85
2022/03/03 11:58:39;;;;;;;27.48;20.60;;;21.30;31.40;;;;;;6186525;23;20040;-85
2022/03/03 12:01:53;;;;;;;28.08;20.60;;;21.70;31.40;;;;;;6188239;23;20021;-85
2022/03/03 12:04:42;;;;;;;27.63;21.55;;;22.20;30.50;;;;;;6186923;23;20021;-84
2022/03/03 12:07:34;;;;;;;37.90;22.00;;;21.10;31.20;;;;;;6186295;23;20053;-86
2022/03/03 12:10:24;;;;;;;29.98;21.20;;;19.80;33.60;;;;;;6187410;23;20421;-84
2022/03/03 12:13:26;;;;;;;33.15;22.23;;;19.60;34.20;;;;;;6188562;23;20037;-84
2022/03/03 12:16:17;;;;;;;33.17;21.83;;;19.20;34.60;;;;;;6188286;23;20048;-86
2022/03/03 12:19:15;;;;;;;26.48;21.55;;;19.80;36.40;;;;;;6188513;23;20448;-86
2022/03/03 12:22:23;;;;;;;31.88;22.05;;;21.00;33.40;;;;;;6191172;23;20025;-85
2022/03/03 12:25:11;;;;;;;31.15;22.00;;;21.60;31.60;;;;;;6190552;23;20134;-85
2022/03/03 12:28:17;;;;;;;34.42;22.42;;;22.00;31.70;;;;;;6190353;23;20048;-86
2022/03/03 12:31:39;;;;;;;34.38;22.88;;;21.50;32.10;;;;;;6191384;23;20048;-85
2022/03/03 12:34:27;;;;;;;30.13;22.55;;;20.60;33.10;;;;;;6170891;23;20091;-86
2022/03/03 12:37:17;;;;;;;34.38;21.88;;;20.70;33.10;;;;;;6191713;23;20401;-85
2022/03/03 12:40:08;;;;;;;30.92;21.55;;;20.60;32.60;;;;;;6171853;23;20033;-86
2022/03/03 12:42:58;;;;;;;32.78;22.50;;;20.60;33.20;;;;;;6192383;23;20064;-86
2022/03/03 12:45:48;;;;;;;34.50;22.10;;;21.00;32.90;;;;;;6193121;23;20029;-85
2022/03/03 12:48:36;;;;;;;29.80;21.55;;;21.80;30.00;;;;;;6192018;23;20049;-86
2022/03/03 12:51:24;;;;;;;33.50;21.38;;;22.10;29.90;;;;;;6171992;23;20036;-86
2022/03/03 12:54:12;;;;;;;28.88;20.80;;;22.60;29.70;;;;;;6192764;23;20029;-87
2022/03/03 12:57:03;;;;;;;31.88;21.23;;;23.00;28.50;;;;;;6190631;23;20033;-86
2022/03/03 12:59:54;;;;;;;32.97;20.67;;;23.70;27.10;;;;;;6191772;23;20405;-87
2022/03/03 13:03:00;;;;;;;30.23;20.70;;;23.30;28.80;;;;;;6171742;23;20099;-85
2022/03/03 13:05:50;;;;;;;31.45;19.48;;;23.80;27.30;;;;;;6191353;23;20035;-85
2022/03/03 13:08:38;;;;;;;26.88;19.73;;;23.20;28.60;;;;;;6192875;23;20043;-85
2022/03/03 13:11:29;;;;;;;27.63;18.83;;;23.90;26.40;;;;;;6191730;23;20021;-85
2022/03/03 13:14:19;;;;;;;27.25;18.75;;;23.90;26.40;;;;;;6193460;23;20039;-86
2022/03/03 13:17:08;;;;;;;36.30;18.67;;;23.10;26.70;;;;;;6194712;23;20087;-88
2022/03/03 13:19:57;;;;;;;32.22;19.80;;;23.10;25.40;;;;;;6194422;23;20116;-86
2022/03/03 13:22:46;;;;;;;30.20;19.10;;;23.60;24.90;;;;;;6193613;23;20048;-86
2022/03/03 13:25:34;;;;;;;26.77;19.00;;;23.40;24.90;;;;;;6176490;23;20025;-86
2022/03/03 13:28:26;;;;;;;22.75;18.00;;;23.70;24.50;;;;;;6202609;23;20064;-85
2022/03/03 13:31:21;;;;;;;;;;;23.40;24.40;;;;;;6178329;23;20025;-87
2022/03/03 13:34:22;;;;;;;35.45;19.95;;;23.90;24.30;;;;;;6179441;23;19967;-87
2022/03/03 13:37:17;;;;;;;28.00;19.23;;;24.00;23.70;;;;;;6201780;23;20080;-84
2022/03/03 13:40:13;;;;;;;24.52;18.98;;;23.90;23.50;;;;;;6206833;23;20072;-85
2022/03/03 13:43:02;;;;;;;27.92;19.50;;;23.50;24.00;;;;;;6164975;23;20338;-86
2022/03/03 13:45:50;;;;;;;25.70;19.70;;;22.60;25.80;;;;;;6187156;23;20087;-87
2022/03/03 13:48:40;;;;;;;29.35;19.80;;;22.80;25.50;;;;;;6187146;23;20033;-86
2022/03/03 13:51:30;;;;;;;27.85;19.98;;;22.50;26.40;;;;;;6185806;23;20025;-86
2022/03/03 13:54:17;;;;;;;30.02;21.05;;;21.90;26.50;;;;;;6186134;23;20106;-86
2022/03/03 13:57:05;;;;;;;28.23;20.58;;;20.80;27.50;;;;;;6186954;23;20059;-86
2022/03/03 13:59:57;;;;;;;29.45;20.67;;;20.60;28.50;;;;;;6185655;23;20385;-85
2022/03/03 14:03:01;;;;;;;28.88;20.65;;;20.40;28.90;;;;;;6194426;23;20036;-86
2022/03/03 14:05:52;;;;;;;24.48;18.48;;;20.50;28.10;;;;;;6171473;23;20025;-86
2022/03/03 14:08:46;;;;;;;29.95;19.83;;;20.70;28.70;;;;;;6165156;23;20035;-86
2022/03/03 14:11:39;;;;;;;27.88;19.00;;;20.50;27.70;;;;;;6185519;23;20035;-86
2022/03/03 14:14:31;;;;;;;24.65;18.25;;;20.30;27.40;;;;;;6183916;23;20028;-85
2022/03/03 14:17:21;;;;;;;28.90;18.42;;;20.60;27.40;;;;;;6165430;23;20028;-85
2022/03/03 14:20:13;;;;;;;25.27;18.13;;;21.00;26.60;;;;;;6162838;23;20056;-85
2022/03/03 14:23:03;;;;;;;28.63;19.55;;;20.30;27.00;;;;;;6186634;23;20330;-86
2022/03/03 14:25:51;;;;;;;25.77;18.83;;;20.00;27.40;;;;;;6184966;23;20029;-86
2022/03/03 14:28:39;;;;;;;29.80;19.23;;;19.60;28.60;;;;;;6186194;23;20025;-86
2022/03/03 14:31:30;;;;;;;30.50;19.90;;;19.00;29.20;;;;;;6186247;23;20029;-85
2022/03/03 14:34:21;;;;;;;31.60;20.65;;;18.80;29.80;;;;;;6186168;23;20091;-85
2022/03/03 14:37:09;;;;;;;35.67;22.42;;;19.10;29.60;;;;;;6185061;23;20108;-86